createdAt,value
2022-11-26T00:00:50.779Z,8.44
2022-11-26T00:03:19.104Z,8.42
2022-11-26T00:05:49.430Z,8.43
2022-11-26T00:08:20.944Z,8.43
2022-11-26T00:10:50.923Z,8.42
2022-11-26T00:13:21.347Z,8.40
2022-11-26T00:15:51.068Z,8.41
2022-11-26T00:18:19.767Z,8.42
2022-11-26T00:20:51.445Z,8.43
2022-11-26T00:23:21.497Z,8.42
2022-11-26T00:25:51.764Z,8.40
2022-11-26T00:28:29.588Z,8.41
2022-11-26T00:31:00.591Z,8.40
2022-11-26T00:33:29.034Z,8.40
2022-11-26T00:35:59.208Z,8.38
2022-11-26T00:38:27.298Z,8.38
2022-11-26T00:40:54.889Z,8.38
2022-11-26T00:43:22.536Z,8.38
2022-11-26T00:45:50.517Z,8.39
2022-11-26T00:48:19.501Z,8.39
2022-11-26T00:50:49.584Z,8.38
2022-11-26T00:53:20.095Z,8.37
2022-11-26T00:55:49.929Z,8.36
2022-11-26T00:58:24.911Z,8.38
2022-11-26T01:01:00.794Z,8.38
2022-11-26T01:03:30.353Z,8.36
2022-11-26T01:05:59.701Z,8.36
2022-11-26T01:08:31.097Z,8.37
2022-11-26T01:10:59.327Z,8.38
2022-11-26T01:13:27.750Z,8.36
2022-11-26T01:15:55.940Z,8.38
2022-11-26T01:18:24.271Z,8.39
2022-11-26T01:20:53.174Z,8.40
2022-11-26T01:23:21.153Z,8.40
2022-11-26T01:25:49.154Z,8.39
2022-11-26T01:28:18.663Z,8.40
2022-11-26T01:30:46.622Z,8.40
2022-11-26T01:33:14.184Z,8.42
2022-11-26T01:35:41.767Z,8.40
2022-11-26T01:38:13.846Z,8.42
2022-11-26T01:40:56.140Z,8.43
2022-11-26T01:43:27.847Z,8.42
2022-11-26T01:45:56.055Z,8.40
2022-11-26T01:48:27.347Z,8.41
2022-11-26T01:51:04.288Z,8.41
2022-11-26T01:53:43.068Z,8.41
2022-11-26T01:56:31.760Z,8.41
2022-11-26T01:59:07.691Z,8.39
2022-11-26T02:01:35.827Z,8.38
2022-11-26T02:04:16.583Z,8.38
2022-11-26T02:06:45.919Z,8.37
2022-11-26T02:09:15.181Z,8.36
2022-11-26T02:11:43.386Z,8.35
2022-11-26T02:14:16.926Z,8.35
2022-11-26T02:16:57.742Z,8.35
2022-11-26T02:19:55.810Z,8.36
2022-11-26T02:22:43.383Z,8.37
2022-11-26T02:25:20.480Z,8.36
2022-11-26T02:28:21.123Z,8.37
2022-11-26T02:30:57.375Z,8.36
2022-11-26T02:33:30.283Z,8.35
2022-11-26T02:36:02.675Z,8.35
2022-11-26T02:38:31.123Z,8.34
2022-11-26T02:40:58.659Z,8.35
2022-11-26T02:43:27.490Z,8.33
2022-11-26T02:46:00.707Z,8.33
2022-11-26T02:48:32.809Z,8.33
2022-11-26T02:51:04.848Z,8.32
2022-11-26T02:53:34.904Z,8.32
2022-11-26T02:56:06.516Z,8.32
2022-11-26T02:58:35.392Z,8.32
2022-11-26T03:01:10.088Z,8.31
2022-11-26T03:03:41.582Z,8.31
2022-11-26T03:06:11.741Z,8.32
2022-11-26T03:08:40.097Z,8.32
2022-11-26T03:11:07.905Z,8.30
2022-11-26T03:13:35.480Z,8.29
2022-11-26T03:16:05.316Z,8.27
2022-11-26T03:18:32.939Z,8.28
2022-11-26T03:21:01.251Z,8.27
2022-11-26T03:23:28.833Z,8.27
2022-11-26T03:25:56.372Z,8.25
2022-11-26T03:28:23.905Z,8.25
2022-11-26T03:30:51.598Z,8.25
2022-11-26T03:33:20.691Z,8.24
2022-11-26T03:35:49.182Z,8.24
2022-11-26T03:38:18.039Z,8.23
2022-11-26T03:40:45.790Z,8.22
2022-11-26T03:43:13.292Z,8.23
2022-11-26T03:45:40.890Z,8.23
2022-11-26T03:48:08.450Z,8.24
2022-11-26T03:50:37.527Z,8.23
2022-11-26T03:53:05.074Z,8.21
2022-11-26T03:55:32.604Z,8.20
2022-11-26T03:58:00.102Z,8.19
2022-11-26T04:00:27.778Z,8.20
2022-11-26T04:02:55.383Z,8.19
2022-11-26T04:05:22.976Z,8.18
2022-11-26T04:07:52.005Z,8.14
2022-11-26T04:10:19.788Z,8.14
2022-11-26T04:12:47.309Z,8.13
2022-11-26T04:15:14.906Z,8.13
2022-11-26T04:17:42.425Z,8.13
2022-11-26T04:20:10.633Z,8.12
2022-11-26T04:22:38.160Z,8.11
2022-11-26T04:25:07.739Z,8.11
2022-11-26T04:27:35.274Z,8.10
2022-11-26T04:30:02.812Z,8.10
2022-11-26T04:32:30.262Z,8.10
2022-11-26T04:34:57.808Z,8.08
2022-11-26T04:37:25.340Z,8.08
2022-11-26T04:39:52.854Z,8.07
2022-11-26T04:42:21.684Z,8.07
2022-11-26T04:44:49.177Z,8.07
2022-11-26T04:47:16.832Z,8.08
2022-11-26T04:49:44.455Z,8.09
2022-11-26T04:52:12.116Z,8.10
2022-11-26T04:54:39.816Z,8.11
2022-11-26T04:57:07.582Z,8.10
2022-11-26T04:59:36.399Z,8.11
2022-11-26T05:02:04.024Z,8.09
2022-11-26T05:04:31.540Z,8.08
2022-11-26T05:06:59.039Z,8.08
2022-11-26T05:09:26.643Z,8.09
2022-11-26T05:11:54.219Z,8.08
2022-11-26T05:14:21.796Z,8.09
2022-11-26T05:16:50.698Z,8.08
2022-11-26T05:19:18.315Z,8.07
2022-11-26T05:21:45.873Z,8.07
2022-11-26T05:24:13.406Z,8.08
2022-11-26T05:26:40.969Z,8.08
2022-11-26T05:29:08.532Z,8.06
2022-11-26T05:31:36.086Z,8.06
2022-11-26T05:34:05.175Z,8.07
2022-11-26T05:36:32.673Z,8.05
2022-11-26T05:39:00.204Z,8.06
2022-11-26T05:41:27.691Z,8.06
2022-11-26T05:43:55.218Z,8.05
2022-11-26T05:46:22.915Z,8.03
2022-11-26T05:48:50.396Z,8.04
2022-11-26T05:51:19.316Z,8.04
2022-11-26T05:53:46.812Z,8.05
2022-11-26T05:56:14.403Z,8.07
2022-11-26T05:58:43.338Z,8.07
2022-11-26T06:01:11.471Z,8.09
2022-11-26T06:03:39.578Z,8.10
2022-11-26T06:06:07.626Z,8.09
2022-11-26T06:08:36.489Z,8.08
2022-11-26T06:11:04.012Z,8.07
2022-11-26T06:13:31.586Z,8.05
2022-11-26T06:15:59.569Z,8.04
2022-11-26T06:18:27.099Z,8.04
2022-11-26T06:20:54.600Z,8.07
2022-11-26T06:23:22.104Z,8.08
2022-11-26T06:25:51.017Z,8.09
2022-11-26T06:28:18.546Z,8.09
2022-11-26T06:30:46.587Z,8.08
2022-11-26T06:33:14.460Z,8.06
2022-11-26T06:35:41.954Z,8.05
2022-11-26T06:38:09.850Z,8.05
2022-11-26T06:40:37.390Z,8.01
2022-11-26T06:43:06.228Z,7.99
2022-11-26T06:45:35.730Z,7.98
2022-11-26T06:48:03.376Z,7.98
2022-11-26T06:50:30.906Z,7.98
2022-11-26T06:52:58.434Z,8.00
2022-11-26T06:55:26.009Z,8.00
2022-11-26T06:57:53.536Z,8.00
2022-11-26T07:00:23.049Z,7.98
2022-11-26T07:02:50.639Z,7.98
2022-11-26T07:05:18.457Z,7.98
2022-11-26T07:07:46.069Z,7.98
2022-11-26T07:10:13.664Z,7.96
2022-11-26T07:12:41.156Z,7.95
2022-11-26T07:15:10.047Z,7.93
2022-11-26T07:17:38.966Z,7.94
2022-11-26T07:20:08.047Z,7.93
2022-11-26T07:22:35.712Z,7.95
2022-11-26T07:25:04.494Z,7.95
2022-11-26T07:27:33.594Z,7.94
2022-11-26T07:30:01.156Z,7.95
2022-11-26T07:32:30.656Z,7.96
2022-11-26T07:35:00.478Z,7.97
2022-11-26T07:37:27.991Z,7.97
2022-11-26T07:39:55.768Z,7.97
2022-11-26T07:42:23.329Z,7.96
2022-11-26T07:44:50.937Z,7.98
2022-11-26T07:47:18.468Z,8.02
2022-11-26T07:49:46.046Z,8.02
2022-11-26T07:52:14.990Z,8.04
2022-11-26T07:54:42.901Z,8.05
2022-11-26T07:57:11.247Z,8.07
2022-11-26T07:59:38.740Z,8.09
2022-11-26T08:02:06.301Z,8.09
2022-11-26T08:04:33.838Z,8.12
2022-11-26T08:07:23.249Z,8.12
2022-11-26T08:09:53.483Z,8.12
2022-11-26T08:12:21.070Z,8.13
2022-11-26T08:14:48.609Z,8.14
2022-11-26T08:17:16.128Z,8.14
2022-11-26T08:19:43.682Z,8.13
2022-11-26T08:22:11.261Z,8.11
2022-11-26T08:24:40.877Z,8.11
2022-11-26T08:27:08.590Z,8.14
2022-11-26T08:29:37.194Z,8.16
2022-11-26T08:32:05.192Z,8.18
2022-11-26T08:34:33.008Z,8.18
2022-11-26T08:37:00.719Z,8.20
2022-11-26T08:39:28.307Z,8.20
2022-11-26T08:41:57.208Z,8.23
2022-11-26T08:44:24.837Z,8.26
2022-11-26T08:46:52.616Z,8.27
2022-11-26T08:49:20.378Z,8.30
2022-11-26T08:51:48.048Z,8.32
2022-11-26T08:54:15.592Z,8.33
2022-11-26T08:56:43.184Z,8.33
2022-11-26T08:59:12.075Z,8.35
2022-11-26T09:01:39.960Z,8.38
2022-11-26T09:04:07.607Z,8.40
2022-11-26T09:06:37.595Z,8.41
2022-11-26T09:09:17.269Z,8.42
2022-11-26T09:11:48.140Z,8.41
2022-11-26T09:14:19.350Z,8.42
2022-11-26T09:16:47.638Z,8.44
2022-11-26T09:19:16.055Z,8.47
2022-11-26T09:21:44.119Z,8.49
2022-11-26T09:24:11.849Z,8.49
2022-11-26T09:26:39.698Z,8.49
2022-11-26T09:29:07.377Z,8.50
2022-11-26T09:31:42.752Z,8.48
2022-11-26T09:34:22.820Z,8.49
2022-11-26T09:36:50.408Z,8.50
2022-11-26T09:39:18.526Z,8.50
2022-11-26T09:41:51.160Z,8.52
2022-11-26T09:44:26.298Z,8.52
2022-11-26T09:47:12.867Z,8.53
2022-11-26T09:49:50.014Z,8.54
2022-11-26T09:52:21.073Z,8.53
2022-11-26T09:54:51.312Z,8.56
2022-11-26T09:57:24.129Z,8.60
2022-11-26T09:59:52.656Z,8.62
2022-11-26T10:02:22.017Z,8.60
2022-11-26T10:04:49.875Z,8.60
2022-11-26T10:07:40.671Z,8.60
2022-11-26T10:10:17.432Z,8.63
2022-11-26T10:13:18.022Z,8.65
2022-11-26T10:15:57.424Z,8.67
2022-11-26T10:18:37.119Z,8.68
2022-11-26T10:21:32.425Z,8.69
2022-11-26T10:24:15.735Z,8.70
2022-11-26T10:26:44.523Z,8.71
2022-11-26T10:29:22.391Z,8.71
2022-11-26T10:31:51.857Z,8.74
2022-11-26T10:34:29.312Z,8.75
2022-11-26T10:36:58.035Z,8.78
2022-11-26T10:39:25.574Z,8.83
2022-11-26T10:41:53.305Z,8.88
2022-11-26T10:44:33.757Z,8.97
2022-11-26T10:47:21.435Z,9.10
2022-11-26T10:49:52.027Z,9.28
2022-11-26T10:52:24.441Z,9.50
2022-11-26T10:55:08.872Z,9.77
2022-11-26T10:57:38.692Z,10.03
2022-11-26T11:00:07.844Z,10.32
2022-11-26T11:02:39.175Z,10.60
2022-11-26T11:05:10.698Z,10.91
2022-11-26T11:07:43.968Z,11.13
2022-11-26T11:10:18.752Z,11.32
2022-11-26T11:12:50.379Z,11.48
2022-11-26T11:15:24.033Z,11.72
2022-11-26T11:17:57.576Z,11.98
2022-11-26T11:20:38.009Z,12.24
2022-11-26T11:23:18.118Z,12.50
2022-11-26T11:25:48.994Z,12.80
2022-11-26T11:28:20.788Z,13.01
2022-11-26T11:31:00.291Z,13.11
2022-11-26T11:33:29.644Z,13.25
2022-11-26T11:36:05.041Z,13.33
2022-11-26T11:38:34.461Z,13.34
2022-11-26T11:41:05.927Z,13.37
2022-11-26T11:43:37.791Z,13.39
2022-11-26T11:46:19.205Z,13.39
2022-11-26T11:48:59.051Z,13.26
2022-11-26T11:51:38.863Z,13.12
2022-11-26T11:54:18.532Z,12.95
2022-11-26T11:56:52.446Z,12.83
2022-11-26T12:00:11.963Z,12.70
2022-11-26T12:03:04.869Z,12.49
2022-11-26T12:05:43.965Z,12.33
2022-11-26T12:08:27.916Z,12.21
2022-11-26T12:11:06.656Z,12.08
2022-11-26T12:13:42.740Z,11.97
2022-11-26T12:16:14.092Z,11.85
2022-11-26T12:18:47.141Z,11.76
2022-11-26T12:21:17.059Z,11.65
2022-11-26T12:23:54.363Z,11.56
2022-11-26T12:26:28.527Z,11.57
2022-11-26T12:29:03.487Z,11.58
2022-11-26T12:31:37.591Z,11.62
2022-11-26T12:34:11.328Z,11.69
2022-11-26T12:36:46.311Z,11.73
2022-11-26T12:39:23.468Z,11.74
2022-11-26T12:41:57.368Z,11.70
2022-11-26T12:44:31.317Z,11.68
2022-11-26T12:47:10.935Z,11.63
2022-11-26T12:49:46.678Z,11.57
2022-11-26T12:52:29.520Z,11.48
2022-11-26T12:55:03.233Z,11.45
2022-11-26T12:57:37.308Z,11.36
2022-11-26T13:00:11.471Z,11.32
2022-11-26T13:02:42.469Z,11.32
2022-11-26T13:05:19.419Z,11.33
2022-11-26T13:08:03.793Z,11.34
2022-11-26T13:10:42.413Z,11.35
2022-11-26T13:13:18.697Z,11.37
2022-11-26T13:15:50.996Z,11.42
2022-11-26T13:18:25.151Z,11.46
2022-11-26T13:21:05.990Z,11.47
2022-11-26T13:23:48.239Z,11.50
2022-11-26T13:26:29.876Z,11.51
2022-11-26T13:29:23.088Z,11.51
2022-11-26T13:32:13.093Z,11.50
2022-11-26T13:34:59.545Z,11.49
2022-11-26T13:37:55.997Z,11.50
2022-11-26T13:40:44.304Z,11.50
2022-11-26T13:43:38.546Z,11.49
2022-11-26T13:46:13.216Z,11.47
2022-11-26T13:48:52.787Z,11.46
2022-11-26T13:51:27.622Z,11.44
2022-11-26T13:54:02.036Z,11.44
2022-11-26T13:56:32.834Z,11.42
2022-11-26T13:59:05.598Z,11.41
2022-11-26T14:01:36.758Z,11.42
2022-11-26T14:04:07.793Z,11.37
2022-11-26T14:06:35.814Z,11.36
2022-11-26T14:09:05.607Z,11.36
2022-11-26T14:11:56.931Z,11.32
2022-11-26T14:14:37.613Z,11.30
2022-11-26T14:17:14.608Z,11.23
2022-11-26T14:20:06.357Z,11.19
2022-11-26T14:22:35.803Z,11.13
2022-11-26T14:25:06.582Z,11.08
2022-11-26T14:27:35.562Z,11.04
2022-11-26T14:30:18.109Z,11.01
2022-11-26T14:32:53.082Z,10.97
2022-11-26T14:35:30.658Z,10.94
2022-11-26T14:38:01.673Z,10.82
2022-11-26T14:40:30.925Z,10.75
2022-11-26T14:43:16.596Z,10.65
2022-11-26T14:45:47.862Z,10.59
2022-11-26T14:48:23.758Z,10.54
2022-11-26T14:50:51.950Z,10.49
2022-11-26T14:53:21.734Z,10.41
2022-11-26T14:55:51.048Z,10.31
2022-11-26T14:58:20.896Z,10.23
2022-11-26T15:01:07.720Z,10.19
2022-11-26T15:03:35.574Z,10.17
2022-11-26T15:06:03.372Z,10.10
2022-11-26T15:08:30.916Z,10.06
2022-11-26T15:11:01.835Z,10.05
2022-11-26T15:13:32.621Z,10.05
2022-11-26T15:16:01.694Z,10.01
2022-11-26T15:18:33.385Z,9.92
2022-11-26T15:21:03.137Z,9.84
2022-11-26T15:23:32.843Z,9.81
2022-11-26T15:26:01.211Z,9.77
2022-11-26T15:28:29.120Z,9.68
2022-11-26T15:30:59.015Z,9.61
2022-11-26T15:33:28.698Z,9.56
2022-11-26T15:35:57.846Z,9.47
2022-11-26T15:38:27.461Z,9.39
2022-11-26T15:40:57.508Z,9.28
2022-11-26T15:43:30.466Z,9.17
2022-11-26T15:46:00.655Z,9.08
2022-11-26T15:48:50.990Z,9.00
2022-11-26T15:51:33.784Z,8.93
2022-11-26T15:54:03.842Z,8.85
2022-11-26T15:56:35.078Z,8.76
2022-11-26T15:59:06.629Z,8.66
2022-11-26T16:01:37.374Z,8.56
2022-11-26T16:04:06.465Z,8.45
2022-11-26T16:06:37.624Z,8.34
2022-11-26T16:09:26.318Z,8.24
2022-11-26T16:12:00.162Z,8.12
2022-11-26T16:14:33.131Z,8.04
2022-11-26T16:17:07.968Z,7.91
2022-11-26T16:19:37.370Z,7.84
2022-11-26T16:22:07.259Z,7.78
2022-11-26T16:24:38.678Z,7.74
2022-11-26T16:27:24.575Z,7.69
2022-11-26T16:29:52.107Z,7.64
2022-11-26T16:32:20.114Z,7.60
2022-11-26T16:34:47.719Z,7.53
2022-11-26T16:37:21.430Z,7.45
2022-11-26T16:39:49.963Z,7.37
2022-11-26T16:42:19.213Z,7.26
2022-11-26T16:44:46.930Z,7.23
2022-11-26T16:47:19.801Z,7.25
2022-11-26T16:49:47.300Z,7.26
2022-11-26T16:52:17.718Z,7.23
2022-11-26T16:54:47.214Z,7.22
2022-11-26T16:57:17.408Z,7.18
2022-11-26T16:59:46.418Z,7.14
2022-11-26T17:02:17.411Z,7.08
2022-11-26T17:04:45.249Z,7.05
2022-11-26T17:07:14.980Z,7.02
2022-11-26T17:09:43.633Z,6.98
2022-11-26T17:12:18.021Z,6.95
2022-11-26T17:14:46.285Z,6.88
2022-11-26T17:17:20.363Z,6.82
2022-11-26T17:19:51.501Z,6.76
2022-11-26T17:22:20.163Z,6.75
2022-11-26T17:24:47.693Z,6.76
2022-11-26T17:27:18.717Z,6.76
2022-11-26T17:29:46.836Z,6.74
2022-11-26T17:32:17.001Z,6.70
2022-11-26T17:34:45.380Z,6.70
2022-11-26T17:37:15.602Z,6.68
2022-11-26T17:39:43.793Z,6.65
2022-11-26T17:42:11.293Z,6.60
2022-11-26T17:44:40.150Z,6.57
2022-11-26T17:47:17.719Z,6.54
2022-11-26T17:49:46.280Z,6.49
2022-11-26T17:52:13.789Z,6.44
2022-11-26T17:54:41.685Z,6.39
2022-11-26T17:57:11.202Z,6.35
2022-11-26T17:59:40.901Z,6.30
2022-11-26T18:02:09.317Z,6.25
2022-11-26T18:04:36.989Z,6.21
2022-11-26T18:07:07.820Z,6.21
2022-11-26T18:09:35.860Z,6.19
2022-11-26T18:12:04.471Z,6.17
2022-11-26T18:14:35.458Z,6.17
2022-11-26T18:17:05.724Z,6.16
2022-11-26T18:19:33.244Z,6.17
2022-11-26T18:22:00.767Z,6.20
2022-11-26T18:24:28.304Z,6.25
2022-11-26T18:26:56.791Z,6.31
2022-11-26T18:29:24.887Z,6.39
2022-11-26T18:31:52.831Z,6.48
2022-11-26T18:34:22.115Z,6.52
2022-11-26T18:36:53.663Z,6.52
2022-11-26T18:39:21.659Z,6.47
2022-11-26T18:41:49.198Z,6.40
2022-11-26T18:44:16.731Z,6.37
2022-11-26T18:46:44.501Z,6.36
2022-11-26T18:49:12.075Z,6.37
2022-11-26T18:51:40.932Z,6.36
2022-11-26T18:54:08.454Z,6.31
2022-11-26T18:56:36.364Z,6.27
2022-11-26T18:59:03.835Z,6.22
2022-11-26T19:01:32.849Z,6.17
2022-11-26T19:04:00.449Z,6.17
2022-11-26T19:06:30.352Z,6.14
2022-11-26T19:09:01.035Z,6.11
2022-11-26T19:11:29.126Z,6.12
2022-11-26T19:13:58.065Z,6.15
2022-11-26T19:16:26.470Z,6.17
2022-11-26T19:18:54.415Z,6.19
2022-11-26T19:21:24.115Z,6.18
2022-11-26T19:23:52.354Z,6.19
2022-11-26T19:26:22.312Z,6.17
2022-11-26T19:28:50.798Z,6.12
2022-11-26T19:31:20.156Z,6.11
2022-11-26T19:33:48.906Z,6.12
2022-11-26T19:36:17.879Z,6.17
2022-11-26T19:38:46.476Z,6.19
2022-11-26T19:41:14.011Z,6.16
2022-11-26T19:43:43.426Z,6.15
2022-11-26T19:46:12.822Z,6.16
2022-11-26T19:48:42.234Z,6.15
2022-11-26T19:51:11.264Z,6.12
2022-11-26T19:53:38.976Z,6.09
2022-11-26T19:56:11.817Z,6.06
2022-11-26T19:58:39.212Z,6.06
2022-11-26T20:01:09.941Z,6.02
2022-11-26T20:03:38.056Z,6.02
2022-11-26T20:06:07.229Z,6.02
2022-11-26T20:08:35.220Z,6.05
2022-11-26T20:11:02.870Z,6.04
2022-11-26T20:13:30.441Z,6.01
2022-11-26T20:15:58.011Z,5.99
2022-11-26T20:18:27.313Z,5.93
2022-11-26T20:20:59.119Z,5.90
2022-11-26T20:23:27.296Z,5.87
2022-11-26T20:25:55.437Z,5.88
2022-11-26T20:28:23.529Z,5.88
2022-11-26T20:30:51.724Z,5.86
2022-11-26T20:33:19.491Z,5.84
2022-11-26T20:35:48.355Z,5.86
2022-11-26T20:38:15.846Z,5.89
2022-11-26T20:40:44.069Z,5.87
2022-11-26T20:43:11.727Z,5.82
2022-11-26T20:45:39.481Z,5.79
2022-11-26T20:48:07.346Z,5.76
2022-11-26T20:50:34.893Z,5.73
2022-11-26T20:53:03.846Z,5.70
2022-11-26T20:55:31.403Z,5.67
2022-11-26T20:57:58.922Z,5.62
2022-11-26T21:00:27.791Z,5.61
2022-11-26T21:02:55.542Z,5.63
2022-11-26T21:05:23.613Z,5.62
2022-11-26T21:07:51.819Z,5.58
2022-11-26T21:10:25.070Z,5.57
2022-11-26T21:12:52.584Z,5.58
2022-11-26T21:15:20.083Z,5.58
2022-11-26T21:17:47.689Z,5.54
2022-11-26T21:20:15.726Z,5.52
2022-11-26T21:22:43.244Z,5.50
2022-11-26T21:25:10.944Z,5.48
2022-11-26T21:27:39.917Z,5.50
2022-11-26T21:30:08.672Z,5.52
2022-11-26T21:32:36.240Z,5.53
2022-11-26T21:35:03.756Z,5.51
2022-11-26T21:37:31.259Z,5.50
2022-11-26T21:39:58.784Z,5.49
2022-11-26T21:42:26.310Z,5.48
2022-11-26T21:44:55.163Z,5.52
2022-11-26T21:47:22.654Z,5.56
2022-11-26T21:49:50.214Z,5.62
2022-11-26T21:52:17.784Z,5.62
2022-11-26T21:54:45.335Z,5.64
2022-11-26T21:57:12.889Z,5.62
2022-11-26T21:59:40.737Z,5.57
2022-11-26T22:02:12.982Z,5.54
2022-11-26T22:04:40.664Z,5.50
2022-11-26T22:07:08.460Z,5.50
2022-11-26T22:09:36.700Z,5.48
2022-11-26T22:12:04.305Z,5.47
2022-11-26T22:14:31.829Z,5.49
2022-11-26T22:16:59.314Z,5.52
2022-11-26T22:19:28.179Z,5.55
2022-11-26T22:21:55.802Z,5.56
2022-11-26T22:24:23.306Z,5.55
2022-11-26T22:26:50.816Z,5.55
2022-11-26T22:29:20.121Z,5.57
2022-11-26T22:31:48.526Z,5.56
2022-11-26T22:34:18.509Z,5.55
2022-11-26T22:36:47.448Z,5.53
2022-11-26T22:39:17.375Z,5.50
2022-11-26T22:41:45.968Z,5.46
2022-11-26T22:44:14.351Z,5.46
2022-11-26T22:46:41.900Z,5.45
2022-11-26T22:49:12.834Z,5.38
2022-11-26T22:51:40.685Z,5.34
2022-11-26T22:54:12.849Z,5.31
2022-11-26T22:56:40.843Z,5.25
2022-11-26T22:59:11.781Z,5.19
2022-11-26T23:01:39.363Z,5.16
2022-11-26T23:04:09.127Z,5.10
2022-11-26T23:06:37.538Z,5.06
2022-11-26T23:09:07.250Z,5.00
2022-11-26T23:11:37.684Z,4.96
2022-11-26T23:14:07.465Z,4.91
2022-11-26T23:16:36.187Z,4.85
2022-11-26T23:19:04.749Z,4.77
2022-11-26T23:21:35.246Z,4.71
2022-11-26T23:24:02.852Z,4.63
2022-11-26T23:26:32.816Z,4.54
2022-11-26T23:29:03.297Z,4.45
2022-11-26T23:31:32.677Z,4.37
2022-11-26T23:34:00.632Z,4.30
2022-11-26T23:36:29.116Z,4.27
2022-11-26T23:38:57.239Z,4.27
2022-11-26T23:41:24.756Z,4.30
2022-11-26T23:43:52.243Z,4.31
2022-11-26T23:46:23.448Z,4.33
2022-11-26T23:48:51.884Z,4.32
2022-11-26T23:51:24.037Z,4.28
2022-11-26T23:53:53.332Z,4.24
2022-11-26T23:56:22.722Z,4.23
2022-11-26T23:58:51.191Z,4.21
